Time;durP1;ratioP1;P1;durP2;ratioP2;P2;SDS_P1;SDS_P2;PMS_P1;PMS_P2;Temp;Humidity;BMP_temperature;BMP_pressure;BME280_temperature;BME280_humidity;BME280_pressure;Samples;Min_cycle;Max_cycle;Signal;HPM_P1;HPM_P2
2022/07/14 00:01:39;;;;;;;12.30;2.90;;;15.20;99.90;;;;;;5052832;28;20052;-67
2022/07/14 00:04:06;;;;;;;12.77;3.45;;;15.20;99.90;;;;;;5062620;28;20102;-67
2022/07/14 00:06:32;;;;;;;12.65;2.65;;;15.20;99.90;;;;;;5062927;28;20062;-68
2022/07/14 00:08:58;;;;;;;8.82;2.60;;;15.10;99.90;;;;;;5054352;28;20049;-68
2022/07/14 00:11:24;;;;;;;12.48;2.72;;;15.10;99.90;;;;;;5069576;28;20078;-67
2022/07/14 00:13:50;;;;;;;12.93;2.97;;;15.10;99.90;;;;;;5062049;28;20098;-68
2022/07/14 00:16:19;;;;;;;11.82;3.08;;;14.90;99.90;;;;;;5067885;28;20048;-68
2022/07/14 00:18:45;;;;;;;14.35;2.63;;;15.00;99.90;;;;;;5069638;28;20045;-69
2022/07/14 00:21:15;;;;;;;11.90;2.80;;;15.00;99.90;;;;;;5060610;28;20045;-69
2022/07/14 00:23:46;;;;;;;11.50;2.47;;;15.00;99.90;;;;;;5066158;28;20060;-68
2022/07/14 00:26:12;;;;;;;10.68;2.70;;;15.00;99.90;;;;;;5040425;28;20044;-69
2022/07/14 00:28:38;;;;;;;11.45;3.30;;;15.00;99.90;;;;;;5062313;28;20414;-68
2022/07/14 00:31:09;;;;;;;7.93;2.40;;;15.00;99.90;;;;;;5063931;28;20040;-68
2022/07/14 00:33:36;;;;;;;9.90;2.20;;;15.00;99.90;;;;;;5060298;28;20044;-67
2022/07/14 00:36:02;;;;;;;18.38;2.83;;;15.00;99.90;;;;;;5053315;28;20470;-68
2022/07/14 00:38:28;;;;;;;15.15;2.70;;;14.90;99.90;;;;;;5066443;28;20091;-68
2022/07/14 00:40:54;;;;;;;15.32;3.20;;;14.90;99.90;;;;;;5068288;28;20045;-68
2022/07/14 00:43:19;;;;;;;9.82;2.63;;;15.00;99.90;;;;;;5069424;28;20139;-68
2022/07/14 00:45:45;;;;;;;10.32;2.65;;;14.80;99.90;;;;;;5059711;28;20060;-68
2022/07/14 00:48:13;;;;;;;11.43;2.70;;;15.00;99.90;;;;;;5062714;28;20533;-68
2022/07/14 00:50:44;;;;;;;11.18;2.80;;;14.90;99.90;;;;;;5060404;28;20047;-68
2022/07/14 00:53:11;;;;;;;9.77;2.60;;;14.80;99.90;;;;;;5057568;28;20402;-68
2022/07/14 00:55:42;;;;;;;9.80;3.13;;;14.80;99.90;;;;;;5053216;28;20193;-67
2022/07/14 00:58:08;;;;;;;13.70;3.00;;;14.80;99.90;;;;;;5056799;28;20383;-69
2022/07/14 01:00:34;;;;;;;12.20;3.00;;;14.80;99.90;;;;;;5065993;28;20110;-68
2022/07/14 01:02:59;;;;;;;11.77;2.70;;;14.70;99.90;;;;;;5067860;28;20465;-68
2022/07/14 01:05:25;;;;;;;8.07;2.88;;;14.70;99.90;;;;;;5069148;28;20047;-67
2022/07/14 01:07:51;;;;;;;11.10;2.58;;;14.70;99.90;;;;;;5064992;28;20107;-68
2022/07/14 01:10:16;;;;;;;8.85;2.75;;;14.60;99.90;;;;;;5066144;28;20513;-68
2022/07/14 01:12:47;;;;;;;7.50;2.47;;;14.70;99.90;;;;;;5054368;28;20402;-69
2022/07/14 01:15:21;;;;;;;14.20;3.28;;;14.70;99.90;;;;;;5069367;28;20053;-69
2022/07/14 01:17:47;;;;;;;15.93;3.55;;;14.70;99.90;;;;;;5050712;28;20044;-67
2022/07/14 01:20:18;;;;;;;18.13;3.25;;;14.80;99.90;;;;;;5062477;28;20537;-68
2022/07/14 01:22:46;;;;;;;13.27;2.63;;;14.80;99.90;;;;;;5060552;28;20032;-69
2022/07/14 01:25:13;;;;;;;8.65;2.45;;;14.80;99.90;;;;;;5081787;28;20048;-68
2022/07/14 01:27:38;;;;;;;12.77;2.78;;;14.90;99.90;;;;;;5055088;28;20091;-68
2022/07/14 01:30:05;;;;;;;12.77;2.63;;;14.90;99.90;;;;;;5056643;28;20079;-67
2022/07/14 01:32:31;;;;;;;11.18;3.08;;;14.90;99.90;;;;;;5058567;28;20087;-69
2022/07/14 01:34:57;;;;;;;13.23;2.70;;;14.90;99.90;;;;;;5069111;28;20463;-68
2022/07/14 01:37:22;;;;;;;9.68;2.60;;;14.90;99.90;;;;;;5061685;28;20426;-69
2022/07/14 01:39:48;;;;;;;12.27;3.15;;;14.90;99.90;;;;;;5059587;28;20033;-67
2022/07/14 01:42:14;;;;;;;12.80;2.85;;;14.90;99.90;;;;;;5061729;28;20071;-68
2022/07/14 01:44:40;;;;;;;12.88;3.38;;;14.80;99.90;;;;;;5055744;28;20044;-69
2022/07/14 01:47:06;;;;;;;12.05;2.80;;;14.80;99.90;;;;;;5047088;28;20091;-67
2022/07/14 01:49:31;;;;;;;13.15;2.80;;;14.80;99.90;;;;;;5058106;28;20064;-68
2022/07/14 01:51:57;;;;;;;12.48;2.58;;;14.80;99.90;;;;;;5058099;28;20526;-68
2022/07/14 01:54:26;;;;;;;10.32;3.00;;;14.70;99.90;;;;;;5056526;28;20075;-69
2022/07/14 01:56:52;;;;;;;12.57;2.65;;;14.70;99.90;;;;;;5063417;28;20045;-69
2022/07/14 01:59:17;;;;;;;10.50;2.55;;;14.70;99.90;;;;;;5062990;28;20495;-68
2022/07/14 02:01:44;;;;;;;7.75;3.05;;;14.70;99.90;;;;;;5062755;28;20045;-68
2022/07/14 02:04:15;;;;;;;13.88;2.67;;;14.60;99.90;;;;;;5059252;28;20060;-68
2022/07/14 02:06:43;;;;;;;14.88;3.33;;;14.60;99.90;;;;;;5054843;28;20410;-67
2022/07/14 02:09:09;;;;;;;15.45;2.80;;;14.50;99.90;;;;;;5056214;28;20041;-68
2022/07/14 02:14:19;;;;;;;12.25;2.97;;;14.30;99.90;;;;;;5052458;28;20052;-67
2022/07/14 02:16:45;;;;;;;11.25;2.47;;;14.30;99.90;;;;;;5063735;28;20116;-69
2022/07/14 02:19:11;;;;;;;9.38;2.60;;;14.20;99.90;;;;;;5064202;28;20487;-68
2022/07/14 02:21:41;;;;;;;16.38;3.50;;;14.20;99.90;;;;;;5061693;28;20037;-67
2022/07/14 02:24:09;;;;;;;7.80;2.35;;;14.10;99.90;;;;;;5051151;28;20052;-68
2022/07/14 02:26:35;;;;;;;;;;;14.10;99.90;;;;;;5063266;28;20044;-67
2022/07/14 02:29:01;;;;;;;12.50;3.33;;;14.10;99.90;;;;;;5061838;28;20382;-69
2022/07/14 02:31:27;;;;;;;10.77;2.70;;;14.00;99.90;;;;;;5066483;28;20086;-69
2022/07/14 02:33:52;;;;;;;8.55;2.60;;;14.00;99.90;;;;;;5069035;28;20080;-66
2022/07/14 02:36:18;;;;;;;13.23;3.17;;;13.90;99.90;;;;;;5058093;28;20040;-68
2022/07/14 02:38:44;;;;;;;10.20;2.80;;;13.90;99.90;;;;;;5064652;28;20055;-67
2022/07/14 02:41:10;;;;;;;8.18;2.70;;;13.90;99.90;;;;;;5068569;28;20095;-68
2022/07/14 02:43:37;;;;;;;11.40;3.25;;;13.90;99.90;;;;;;5059598;28;20116;-67
2022/07/14 02:46:03;;;;;;;13.63;3.42;;;13.90;99.90;;;;;;5058891;28;20052;-67
2022/07/14 02:48:29;;;;;;;10.93;3.28;;;14.00;99.90;;;;;;5066768;28;20047;-67
2022/07/14 02:51:12;;;;;;;9.65;2.90;;;13.90;99.90;;;;;;5058681;28;20036;-68
2022/07/14 02:53:37;;;;;;;12.60;2.80;;;13.80;99.90;;;;;;5067338;28;20078;-68
2022/07/14 02:56:05;;;;;;;13.98;3.55;;;13.80;99.90;;;;;;5055395;28;20751;-69
2022/07/14 02:58:31;;;;;;;8.50;2.55;;;13.80;99.90;;;;;;5066252;28;20044;-68
2022/07/14 03:00:57;;;;;;;10.02;2.72;;;13.70;99.90;;;;;;5062961;28;20479;-68
2022/07/14 03:03:23;;;;;;;11.68;2.97;;;13.70;99.90;;;;;;5059272;28;20071;-69
2022/07/14 03:05:49;;;;;;;15.07;3.70;;;13.70;99.90;;;;;;5062578;28;20529;-67
2022/07/14 03:08:15;;;;;;;11.57;3.33;;;13.70;99.90;;;;;;5054672;28;20076;-69
2022/07/14 03:10:42;;;;;;;12.40;3.25;;;13.60;99.90;;;;;;5065018;28;20072;-67
2022/07/14 03:13:08;;;;;;;17.38;3.10;;;13.50;99.90;;;;;;5071190;28;20047;-70
2022/07/14 03:15:35;;;;;;;13.25;3.15;;;13.50;99.90;;;;;;5067649;28;20445;-68
2022/07/14 03:18:01;;;;;;;11.20;2.67;;;13.50;99.90;;;;;;5052936;28;20043;-67
2022/07/14 03:20:30;;;;;;;12.13;3.25;;;13.50;99.90;;;;;;5064094;28;20150;-67
2022/07/14 03:22:56;;;;;;;6.13;2.50;;;13.50;99.90;;;;;;5064511;28;20063;-68
2022/07/14 03:25:22;;;;;;;11.43;3.00;;;13.50;99.90;;;;;;5067254;28;20044;-68
2022/07/14 03:27:48;;;;;;;11.38;3.08;;;13.50;99.90;;;;;;5074192;28;20036;-68
2022/07/14 03:30:16;;;;;;;10.95;3.30;;;13.50;99.90;;;;;;5076564;28;20120;-68
2022/07/14 03:32:41;;;;;;;10.40;2.83;;;13.50;99.90;;;;;;5065957;28;20048;-69
2022/07/14 03:35:08;;;;;;;14.80;2.90;;;13.40;99.90;;;;;;5072667;28;20055;-69
2022/07/14 03:37:34;;;;;;;9.98;2.70;;;13.40;99.90;;;;;;5072353;28;20101;-68
2022/07/14 03:40:00;;;;;;;8.48;2.80;;;13.40;99.90;;;;;;5064450;28;20399;-68
2022/07/14 03:42:26;;;;;;;12.90;2.85;;;13.40;99.90;;;;;;5071347;28;20048;-69
2022/07/14 03:44:52;;;;;;;12.02;2.90;;;13.40;99.90;;;;;;5066702;28;20048;-67
2022/07/14 03:47:17;;;;;;;8.63;2.67;;;13.40;99.90;;;;;;5069407;28;20072;-69
2022/07/14 03:49:43;;;;;;;8.45;2.95;;;13.30;99.90;;;;;;5072111;28;20398;-69
2022/07/14 03:52:09;;;;;;;15.32;3.67;;;13.40;99.90;;;;;;5063604;28;20041;-69
2022/07/14 03:54:36;;;;;;;10.00;2.78;;;13.40;99.90;;;;;;5080381;28;20116;-69
2022/07/14 03:57:03;;;;;;;8.32;2.30;;;13.40;99.90;;;;;;5069503;28;20121;-69
2022/07/14 03:59:31;;;;;;;10.35;2.35;;;13.40;99.90;;;;;;5065484;28;20455;-68
2022/07/14 04:01:56;;;;;;;;;;;13.40;99.90;;;;;;5058069;28;20049;-68
2022/07/14 04:04:22;;;;;;;10.48;2.67;;;13.40;99.90;;;;;;5070436;28;19920;-69
2022/07/14 04:06:48;;;;;;;12.75;2.50;;;13.40;99.90;;;;;;5062516;28;20048;-68
2022/07/14 04:09:15;;;;;;;9.10;2.80;;;13.40;99.90;;;;;;5067060;28;20525;-69
2022/07/14 04:11:41;;;;;;;9.18;2.10;;;13.40;99.90;;;;;;5057768;28;20039;-69
2022/07/14 04:14:07;;;;;;;8.65;2.42;;;13.40;99.90;;;;;;5064778;28;20065;-68
2022/07/14 04:16:32;;;;;;;9.77;2.60;;;13.40;99.90;;;;;;5063468;28;20124;-68
2022/07/14 04:18:58;;;;;;;9.95;2.47;;;13.40;99.90;;;;;;5063782;28;20041;-68
2022/07/14 04:21:24;;;;;;;11.85;2.38;;;13.40;99.90;;;;;;5062740;28;20040;-68
2022/07/14 04:23:49;;;;;;;9.57;2.55;;;13.40;99.90;;;;;;5057208;28;20040;-68
2022/07/14 04:26:15;;;;;;;13.38;2.80;;;13.40;99.90;;;;;;5056388;28;20106;-68
2022/07/14 04:28:41;;;;;;;10.85;2.10;;;13.50;99.90;;;;;;5054111;28;20037;-68
2022/07/14 04:31:08;;;;;;;6.50;2.00;;;13.50;99.90;;;;;;5059037;28;20402;-67
2022/07/14 04:33:34;;;;;;;10.20;2.23;;;13.50;99.90;;;;;;5046762;28;20233;-68
2022/07/14 04:36:00;;;;;;;7.68;2.00;;;13.60;99.90;;;;;;5054610;28;20124;-68
2022/07/14 04:38:25;;;;;;;7.03;2.20;;;13.60;99.90;;;;;;5058056;28;20040;-68
2022/07/14 04:40:52;;;;;;;6.63;1.70;;;13.70;99.90;;;;;;5069597;28;20055;-67
2022/07/14 04:43:18;;;;;;;7.95;2.13;;;13.70;99.90;;;;;;5060607;28;20094;-68
2022/07/14 04:45:47;;;;;;;7.70;1.83;;;13.70;99.90;;;;;;5063145;28;20040;-68
2022/07/14 04:48:13;;;;;;;9.13;2.20;;;13.70;99.90;;;;;;5064800;28;20037;-67
2022/07/14 04:53:23;;;;;;;26.50;4.40;;;13.70;99.90;;;;;;5054260;28;20077;-68
2022/07/14 04:55:49;;;;;;;7.20;2.38;;;13.80;99.90;;;;;;5067719;28;20068;-69
2022/07/14 04:58:16;;;;;;;11.57;2.38;;;13.90;99.90;;;;;;5056213;28;20045;-68
2022/07/14 05:00:41;;;;;;;7.60;2.35;;;14.00;99.90;;;;;;5057197;28;20493;-68
2022/07/14 05:03:07;;;;;;;7.13;2.05;;;14.00;99.90;;;;;;5067095;28;20111;-69
2022/07/14 05:05:33;;;;;;;8.55;2.28;;;14.10;99.90;;;;;;5071529;28;20098;-68
2022/07/14 05:07:59;;;;;;;9.70;2.40;;;14.10;99.90;;;;;;5072148;28;20067;-68
2022/07/14 05:10:24;;;;;;;11.13;2.42;;;14.20;99.90;;;;;;5069099;28;20491;-67
2022/07/14 05:12:50;;;;;;;11.90;2.33;;;14.20;99.90;;;;;;5062430;28;20041;-67
2022/07/14 05:15:16;;;;;;;5.15;1.70;;;14.30;99.90;;;;;;5058089;28;20055;-68
2022/07/14 05:17:43;;;;;;;5.55;1.60;;;14.40;99.90;;;;;;5051538;28;20080;-68
2022/07/14 05:20:12;;;;;;;8.48;2.20;;;14.50;99.90;;;;;;5052833;28;20048;-67
2022/07/14 05:22:39;;;;;;;8.15;1.95;;;14.50;99.90;;;;;;5069971;28;20032;-68
2022/07/14 05:25:09;;;;;;;8.35;2.20;;;14.70;99.90;;;;;;5070026;28;20044;-67
2022/07/14 05:27:39;;;;;;;7.97;1.83;;;14.70;99.90;;;;;;5068744;28;20059;-68
2022/07/14 05:30:08;;;;;;;9.57;2.10;;;14.70;99.90;;;;;;5063115;28;20136;-67
2022/07/14 05:32:35;;;;;;;13.40;2.22;;;14.80;99.90;;;;;;5052253;28;20045;-67
2022/07/14 05:35:01;;;;;;;6.87;1.67;;;14.90;99.90;;;;;;5069238;28;20052;-68
2022/07/14 05:37:27;;;;;;;7.40;1.67;;;15.00;99.90;;;;;;5071273;28;20048;-68
2022/07/14 05:39:53;;;;;;;10.73;2.00;;;15.00;99.90;;;;;;5070590;28;20040;-69
2022/07/14 05:42:22;;;;;;;9.23;2.45;;;15.10;99.90;;;;;;5058078;28;20044;-69
2022/07/14 05:44:49;;;;;;;8.35;2.08;;;15.20;99.90;;;;;;5067111;28;20032;-68
2022/07/14 05:47:14;;;;;;;12.25;2.20;;;15.20;99.90;;;;;;5059645;28;20068;-69
2022/07/14 05:49:41;;;;;;;6.22;1.95;;;15.30;99.90;;;;;;5062936;28;20064;-68
2022/07/14 05:52:10;;;;;;;10.82;2.22;;;15.40;99.90;;;;;;5052766;28;20395;-67
2022/07/14 05:54:36;;;;;;;11.93;2.00;;;15.40;99.90;;;;;;5054297;28;20036;-68
2022/07/14 05:57:02;;;;;;;8.57;2.38;;;15.60;99.90;;;;;;5067566;28;20556;-67
2022/07/14 05:59:28;;;;;;;7.70;2.00;;;15.60;99.90;;;;;;5052809;28;20045;-68
2022/07/14 06:01:53;;;;;;;11.60;1.70;;;15.70;99.90;;;;;;5063783;28;20493;-69
2022/07/14 06:04:19;;;;;;;8.35;2.22;;;15.80;99.90;;;;;;5058439;28;20048;-68
2022/07/14 06:06:46;;;;;;;8.88;2.22;;;15.90;99.90;;;;;;5067806;28;20071;-68
2022/07/14 06:09:12;;;;;;;8.70;2.10;;;16.00;99.90;;;;;;5055486;28;20044;-68
2022/07/14 06:11:40;;;;;;;6.85;1.65;;;16.00;99.90;;;;;;5056305;28;20045;-68
2022/07/14 06:14:07;;;;;;;9.82;1.80;;;16.10;99.90;;;;;;5062897;28;20056;-68
2022/07/14 06:16:33;;;;;;;5.97;1.73;;;16.20;99.90;;;;;;5061068;28;20056;-68
2022/07/14 06:19:03;;;;;;;8.63;1.95;;;16.30;99.90;;;;;;5061968;28;20052;-68
2022/07/14 06:21:29;;;;;;;6.90;1.70;;;16.50;99.90;;;;;;5067720;28;20072;-68
2022/07/14 06:23:54;;;;;;;8.73;1.60;;;16.90;99.90;;;;;;5061629;28;20122;-68
2022/07/14 06:26:20;;;;;;;6.93;1.70;;;17.20;99.90;;;;;;5061722;28;20039;-69
2022/07/14 06:28:49;;;;;;;8.07;1.90;;;17.20;99.90;;;;;;5064155;28;20032;-68
2022/07/14 06:31:15;;;;;;;7.97;1.70;;;17.30;99.90;;;;;;5065155;28;20045;-68
2022/07/14 06:33:41;;;;;;;11.27;2.28;;;17.30;99.90;;;;;;5053615;28;20448;-69
2022/07/14 06:36:08;;;;;;;4.68;1.35;;;17.30;99.90;;;;;;5056215;28;20399;-70
2022/07/14 06:38:35;;;;;;;5.60;1.70;;;17.30;99.90;;;;;;5074074;28;20052;-67
2022/07/14 06:41:01;;;;;;;6.25;1.50;;;17.30;99.90;;;;;;5073265;28;20044;-68
2022/07/14 06:43:29;;;;;;;8.73;1.52;;;17.30;99.90;;;;;;5072681;28;20127;-69
2022/07/14 06:45:55;;;;;;;6.70;1.77;;;17.30;99.90;;;;;;5068009;28;20094;-68
2022/07/14 06:48:23;;;;;;;8.82;1.65;;;17.40;99.90;;;;;;5071336;28;20047;-68
2022/07/14 06:50:49;;;;;;;9.25;1.50;;;17.50;99.90;;;;;;5068439;28;20051;-68
2022/07/14 06:53:14;;;;;;;7.40;1.83;;;17.60;99.90;;;;;;5065516;28;20041;-67
2022/07/14 06:55:40;;;;;;;12.02;1.90;;;17.70;99.90;;;;;;5063767;28;20139;-69
2022/07/14 06:58:06;;;;;;;7.93;1.80;;;17.80;99.90;;;;;;5064473;28;20048;-69
2022/07/14 07:00:32;;;;;;;5.03;1.33;;;17.90;99.90;;;;;;5071625;28;20115;-68
2022/07/14 07:02:58;;;;;;;5.28;1.48;;;18.00;99.90;;;;;;5061695;28;20079;-67
2022/07/14 07:08:08;;;;;;;3.80;1.45;;;18.10;99.90;;;;;;5071948;28;20064;-69
2022/07/14 07:10:40;;;;;;;7.57;1.60;;;18.20;99.90;;;;;;5065535;28;20057;-68
2022/07/14 07:13:07;;;;;;;6.00;1.45;;;18.30;99.90;;;;;;5049425;28;20048;-68
2022/07/14 07:15:37;;;;;;;9.17;1.40;;;18.40;99.90;;;;;;5064426;28;20044;-68
2022/07/14 07:18:06;;;;;;;6.55;1.55;;;18.40;99.90;;;;;;5066135;28;20048;-68
2022/07/14 07:20:33;;;;;;;7.13;1.80;;;18.50;99.90;;;;;;5068727;28;20046;-68
2022/07/14 07:22:58;;;;;;;9.17;1.50;;;18.60;99.90;;;;;;5053918;28;20048;-68
2022/07/14 07:25:24;;;;;;;5.43;1.17;;;18.70;99.90;;;;;;5073025;28;20409;-68
2022/07/14 07:27:50;;;;;;;3.58;1.20;;;18.60;99.90;;;;;;5059508;28;20075;-69
2022/07/14 07:30:15;;;;;;;5.07;1.20;;;18.50;99.90;;;;;;5065981;28;20040;-68
2022/07/14 07:32:41;;;;;;;9.13;1.50;;;18.50;99.90;;;;;;5072858;28;20041;-68
2022/07/14 07:35:07;;;;;;;4.95;1.27;;;18.60;99.90;;;;;;5068343;28;20045;-69
2022/07/14 07:37:33;;;;;;;3.65;1.17;;;18.50;99.90;;;;;;5072644;28;20036;-68
2022/07/14 07:40:00;;;;;;;2.83;1.10;;;18.60;99.90;;;;;;5057101;28;20081;-68
2022/07/14 07:42:25;;;;;;;3.77;1.13;;;18.70;99.90;;;;;;5055746;28;20379;-67
2022/07/14 07:44:51;;;;;;;4.43;1.02;;;18.90;99.90;;;;;;5046595;28;20424;-67
2022/07/14 07:47:17;;;;;;;5.03;1.33;;;19.10;99.90;;;;;;5066217;28;20041;-68
2022/07/14 07:49:43;;;;;;;4.15;1.42;;;19.30;99.90;;;;;;5067240;28;20041;-68
2022/07/14 07:52:08;;;;;;;7.15;1.35;;;19.30;99.90;;;;;;5071957;28;20041;-68
2022/07/14 07:54:34;;;;;;;9.63;1.30;;;19.20;99.90;;;;;;5065124;28;20462;-66
2022/07/14 07:57:00;;;;;;;7.15;1.50;;;19.20;99.90;;;;;;5055327;28;20536;-68
2022/07/14 07:59:26;;;;;;;2.55;0.98;;;19.20;99.90;;;;;;5073639;28;20048;-68
2022/07/14 08:01:53;;;;;;;4.90;1.15;;;19.30;99.90;;;;;;5070187;28;20117;-68
2022/07/14 08:04:18;;;;;;;5.28;1.30;;;19.40;99.90;;;;;;5061083;28;20128;-68
2022/07/14 08:06:44;;;;;;;4.25;1.10;;;19.60;99.90;;;;;;5064724;28;20162;-68
2022/07/14 08:09:13;;;;;;;4.63;1.30;;;19.70;99.90;;;;;;5048712;28;20037;-68
2022/07/14 08:11:40;;;;;;;3.78;1.30;;;19.70;99.90;;;;;;5064966;28;20087;-68
2022/07/14 08:14:47;;;;;;;4.00;1.10;;;19.70;99.90;;;;;;5072105;28;20048;-67
2022/07/14 08:16:53;;;;;;;5.88;1.13;;;19.60;99.90;;;;;;5069237;28;20083;-68
2022/07/14 08:19:18;;;;;;;5.40;1.10;;;19.60;99.90;;;;;;5065998;28;20036;-69
2022/07/14 08:21:44;;;;;;;12.38;1.25;;;19.70;99.90;;;;;;5053544;28;20043;-67
2022/07/14 08:24:10;;;;;;;4.88;1.15;;;19.60;99.90;;;;;;5068320;28;20041;-68
2022/07/14 08:26:36;;;;;;;5.18;1.17;;;19.70;99.50;;;;;;5064718;28;20036;-67
2022/07/14 08:29:01;;;;;;;3.78;1.20;;;19.60;99.30;;;;;;5061295;28;20058;-67
2022/07/14 08:31:27;;;;;;;3.58;0.90;;;19.80;99.50;;;;;;5064361;28;20072;-67
2022/07/14 08:33:53;;;;;;;6.38;1.20;;;19.90;99.90;;;;;;5056509;28;20064;-68
2022/07/14 08:36:18;;;;;;;2.65;1.10;;;20.10;99.90;;;;;;5067688;28;20108;-66
2022/07/14 08:38:44;;;;;;;6.90;1.40;;;20.10;99.80;;;;;;5056415;28;20049;-68
2022/07/14 08:41:10;;;;;;;3.47;1.25;;;20.20;99.90;;;;;;5062804;28;20090;-68
2022/07/14 08:43:37;;;;;;;2.45;0.95;;;20.20;99.90;;;;;;5058266;28;20033;-67
2022/07/14 08:46:04;;;;;;;7.45;1.33;;;20.20;99.00;;;;;;5071829;28;20045;-68
2022/07/14 08:48:31;;;;;;;4.40;1.30;;;20.20;99.00;;;;;;5071649;28;20047;-67
2022/07/14 08:51:03;;;;;;;7.13;1.50;;;20.10;99.40;;;;;;5070839;28;20040;-67
2022/07/14 08:53:32;;;;;;;4.82;1.30;;;20.10;99.80;;;;;;5055269;28;20037;-67
2022/07/14 08:55:58;;;;;;;3.83;1.10;;;20.10;99.90;;;;;;5065881;28;20062;-67
2022/07/14 08:58:24;;;;;;;6.18;1.33;;;20.20;99.90;;;;;;5044134;28;20047;-68
2022/07/14 09:00:50;;;;;;;4.20;1.00;;;20.20;99.80;;;;;;5051432;28;20048;-67
2022/07/14 09:03:16;;;;;;;4.75;1.27;;;20.20;98.60;;;;;;5060374;28;20044;-67
2022/07/14 09:05:45;;;;;;;5.75;1.15;;;20.20;99.00;;;;;;5071005;28;20094;-68
2022/07/14 09:08:12;;;;;;;3.13;0.90;;;20.20;99.10;;;;;;5052700;28;20080;-68
2022/07/14 09:10:40;;;;;;;4.00;1.00;;;20.30;98.50;;;;;;5065907;28;20036;-67
2022/07/14 09:13:14;;;;;;;4.18;1.33;;;20.30;98.00;;;;;;5067664;28;20098;-67
2022/07/14 09:15:46;;;;;;;5.05;1.08;;;20.30;97.70;;;;;;5054367;28;20045;-67
2022/07/14 09:18:28;;;;;;;4.57;0.90;;;20.20;97.90;;;;;;5070276;28;20506;-67
2022/07/14 09:20:55;;;;;;;5.50;1.00;;;20.20;97.80;;;;;;5061087;28;20045;-67
2022/07/14 09:23:37;;;;;;;3.87;1.23;;;20.30;98.00;;;;;;5055459;28;20103;-67
2022/07/14 09:26:17;;;;;;;4.45;1.00;;;20.20;98.10;;;;;;5066655;28;20052;-68
2022/07/14 09:28:45;;;;;;;4.18;1.58;;;20.10;98.40;;;;;;5065039;28;20074;-67
2022/07/14 09:31:21;;;;;;;;;;;20.00;98.90;;;;;;5056664;28;20106;-67
2022/07/14 09:33:58;;;;;;;3.17;1.08;;;19.90;99.20;;;;;;5082950;28;20378;-67
2022/07/14 09:36:29;;;;;;;2.38;0.95;;;20.10;99.10;;;;;;5063278;28;20076;-68
2022/07/14 09:39:00;;;;;;;5.93;1.08;;;20.30;98.40;;;;;;5053283;28;20051;-66
2022/07/14 09:41:26;;;;;;;5.20;1.05;;;20.40;98.60;;;;;;5064839;28;20043;-66
2022/07/14 09:44:19;;;;;;;3.60;1.00;;;20.80;98.70;;;;;;5067612;28;20521;-67
2022/07/14 09:46:57;;;;;;;2.70;1.00;;;21.00;97.60;;;;;;5042503;28;20049;-68
2022/07/14 09:49:25;;;;;;;4.97;1.20;;;21.10;96.50;;;;;;5066994;28;20402;-67
2022/07/14 09:51:51;;;;;;;6.18;1.55;;;21.20;96.70;;;;;;5069443;28;20040;-67
2022/07/14 09:54:37;;;;;;;3.55;0.93;;;21.10;97.00;;;;;;5046538;28;20064;-66
2022/07/14 09:57:12;;;;;;;4.60;1.40;;;21.10;96.70;;;;;;5059582;28;20068;-68
2022/07/14 09:59:51;;;;;;;3.97;0.93;;;21.10;97.10;;;;;;5060419;28;20135;-67
2022/07/14 10:02:21;;;;;;;5.47;1.10;;;21.10;96.30;;;;;;5053906;28;20514;-67
2022/07/14 10:04:48;;;;;;;4.88;1.20;;;20.90;97.00;;;;;;5064989;28;20040;-66
2022/07/14 10:07:15;;;;;;;6.43;1.10;;;20.80;97.30;;;;;;5061092;28;20436;-66
2022/07/14 10:09:48;;;;;;;;;;;20.70;97.50;;;;;;5061380;28;20048;-67
2022/07/14 10:12:14;;;;;;;8.00;1.50;;;20.80;96.70;;;;;;5070278;28;19920;-67
2022/07/14 10:14:41;;;;;;;5.07;1.15;;;20.70;96.50;;;;;;5060086;28;20044;-65
2022/07/14 10:17:07;;;;;;;3.75;1.42;;;20.80;96.10;;;;;;5060535;28;20040;-67
2022/07/14 10:19:35;;;;;;;4.68;1.00;;;20.80;95.70;;;;;;5054411;28;20083;-66
2022/07/14 10:22:01;;;;;;;7.32;1.42;;;20.80;96.30;;;;;;5049253;28;20049;-66
2022/07/14 10:24:29;;;;;;;2.70;1.10;;;20.80;96.50;;;;;;5057286;28;20041;-67
2022/07/14 10:26:56;;;;;;;2.05;0.93;;;20.70;96.30;;;;;;5068791;28;20070;-66
2022/07/14 10:29:22;;;;;;;3.88;0.90;;;20.70;96.80;;;;;;5054890;28;20102;-67
2022/07/14 10:32:33;;;;;;;6.07;1.30;;;20.90;96.50;;;;;;5065627;28;20418;-68
2022/07/14 10:35:02;;;;;;;4.05;1.30;;;21.10;96.10;;;;;;5047491;28;20102;-67
2022/07/14 10:38:00;;;;;;;6.75;1.60;;;21.20;96.20;;;;;;5061526;28;20052;-67
2022/07/14 10:40:29;;;;;;;4.35;1.10;;;21.40;96.00;;;;;;5043243;28;20052;-66
2022/07/14 10:43:09;;;;;;;5.82;1.33;;;21.30;96.10;;;;;;5052410;28;20375;-66
2022/07/14 10:45:55;;;;;;;3.22;0.90;;;21.20;96.50;;;;;;5064332;28;20045;-67
2022/07/14 10:48:34;;;;;;;6.38;1.40;;;21.20;96.00;;;;;;5062280;28;20047;-68
2022/07/14 10:51:16;;;;;;;4.55;1.15;;;21.20;95.80;;;;;;5058376;28;20048;-68
2022/07/14 10:54:18;;;;;;;3.42;1.10;;;21.00;96.30;;;;;;5060806;28;20548;-67
2022/07/14 10:56:45;;;;;;;4.43;1.30;;;20.80;95.80;;;;;;5066042;28;20059;-68
2022/07/14 10:59:30;;;;;;;5.75;1.25;;;20.60;95.50;;;;;;5068558;28;20178;-66
2022/07/14 11:02:14;;;;;;;6.45;1.30;;;20.50;96.40;;;;;;5046825;28;20049;-66
2022/07/14 11:05:01;;;;;;;5.05;1.25;;;20.40;96.60;;;;;;5053547;28;20561;-68
2022/07/14 11:07:40;;;;;;;1.48;0.90;;;20.30;97.10;;;;;;5054917;28;20064;-67
2022/07/14 11:10:26;;;;;;;4.30;1.08;;;20.30;97.10;;;;;;5053126;28;20033;-69
2022/07/14 11:13:18;;;;;;;5.00;1.38;;;20.30;97.60;;;;;;5015129;28;20515;-67
2022/07/14 11:15:57;;;;;;;2.25;1.02;;;20.30;97.90;;;;;;5043708;28;20067;-67
2022/07/14 11:18:26;;;;;;;5.55;1.10;;;20.30;97.70;;;;;;5062108;28;20048;-68
2022/07/14 11:21:17;;;;;;;6.45;1.10;;;20.30;97.50;;;;;;5059431;28;20087;-66
2022/07/14 11:23:49;;;;;;;4.28;1.27;;;20.20;97.70;;;;;;5062269;28;20483;-67
2022/07/14 11:26:41;;;;;;;4.05;1.17;;;20.20;97.70;;;;;;5060326;28;20044;-67
2022/07/14 11:29:30;;;;;;;10.38;1.45;;;20.30;97.90;;;;;;5067043;28;20136;-68
2022/07/14 11:31:59;;;;;;;4.45;1.20;;;20.40;97.90;;;;;;5055752;28;20447;-67
2022/07/14 11:37:11;;;;;;;3.70;1.00;;;21.00;96.90;;;;;;5061245;28;20064;-67
2022/07/14 11:39:38;;;;;;;2.13;0.90;;;21.40;96.40;;;;;;5050110;28;20045;-67
2022/07/14 11:42:16;;;;;;;2.80;1.02;;;21.70;97.00;;;;;;5051548;28;20291;-67
2022/07/14 11:44:42;;;;;;;9.85;1.38;;;21.80;96.30;;;;;;5068323;28;20053;-68
2022/07/14 11:47:23;;;;;;;7.43;1.52;;;21.70;96.10;;;;;;5063880;28;20065;-66
2022/07/14 11:50:03;;;;;;;2.72;1.00;;;21.70;96.40;;;;;;5057100;28;20685;-68
2022/07/14 11:52:32;;;;;;;3.53;1.33;;;21.50;96.20;;;;;;5065482;28;20044;-67
2022/07/14 11:55:00;;;;;;;5.20;1.10;;;21.50;96.80;;;;;;5057680;28;20067;-67
2022/07/14 11:57:28;;;;;;;4.95;1.35;;;21.60;96.60;;;;;;5028890;28;20068;-67
2022/07/14 12:00:07;;;;;;;4.57;1.08;;;21.60;96.10;;;;;;5047963;28;20071;-67
2022/07/14 12:02:37;;;;;;;5.18;0.98;;;21.40;95.70;;;;;;5059347;28;20049;-68
2022/07/14 12:05:03;;;;;;;3.47;0.90;;;21.20;96.40;;;;;;5057262;28;20063;-67
2022/07/14 12:07:46;;;;;;;5.13;1.30;;;21.00;95.90;;;;;;5029508;28;1105939;-68
2022/07/14 12:10:14;;;;;;;4.40;1.27;;;20.80;96.50;;;;;;5059317;28;20398;-67
2022/07/14 12:12:46;;;;;;;4.40;1.15;;;20.60;96.80;;;;;;5067661;28;20613;-67
2022/07/14 12:15:25;;;;;;;5.15;1.10;;;20.60;97.10;;;;;;5062330;28;20049;-67
2022/07/14 12:17:53;;;;;;;4.60;1.30;;;20.40;97.00;;;;;;5053599;28;20059;-66
2022/07/14 12:20:21;;;;;;;7.65;1.40;;;20.20;97.30;;;;;;5035639;28;20098;-68
2022/07/14 12:22:56;;;;;;;3.28;1.08;;;20.10;97.70;;;;;;5055786;28;20051;-66
2022/07/14 12:25:30;;;;;;;6.40;1.70;;;20.20;97.50;;;;;;5064558;28;20056;-68
2022/07/14 12:27:58;;;;;;;4.68;1.60;;;20.60;97.50;;;;;;5066089;28;20106;-68
2022/07/14 12:30:23;;;;;;;6.88;1.50;;;21.00;96.90;;;;;;5065509;28;20065;-67
2022/07/14 12:32:59;;;;;;;3.25;1.50;;;21.40;95.80;;;;;;5058645;28;20394;-68
2022/07/14 12:35:33;;;;;;;6.72;1.40;;;21.70;95.90;;;;;;5049200;28;20037;-67
2022/07/14 12:37:59;;;;;;;4.60;1.40;;;21.60;94.90;;;;;;5061393;28;20058;-67
2022/07/14 12:40:25;;;;;;;6.05;1.20;;;21.40;94.50;;;;;;5059285;28;20037;-67
2022/07/14 12:42:54;;;;;;;6.88;1.33;;;21.10;94.40;;;;;;5053809;28;20053;-66
2022/07/14 12:45:20;;;;;;;4.55;1.30;;;20.90;95.20;;;;;;5063393;28;20045;-67
2022/07/14 12:47:50;;;;;;;2.65;1.02;;;20.70;95.50;;;;;;5059511;28;20045;-67
2022/07/14 12:50:24;;;;;;;8.55;1.52;;;20.70;94.80;;;;;;5059390;28;20065;-67
2022/07/14 12:52:58;;;;;;;4.28;1.38;;;20.60;95.20;;;;;;5066215;28;20044;-67
2022/07/14 12:55:38;;;;;;;6.90;1.42;;;20.60;95.40;;;;;;5031492;28;20056;-67
2022/07/14 12:58:09;;;;;;;4.20;1.02;;;20.80;95.10;;;;;;5058462;28;20083;-66
2022/07/14 13:00:36;;;;;;;8.02;1.38;;;21.10;94.30;;;;;;5057993;28;20402;-66
2022/07/14 13:03:10;;;;;;;4.88;1.20;;;21.40;93.50;;;;;;5059580;28;20406;-68
2022/07/14 13:05:37;;;;;;;5.32;1.63;;;21.40;93.40;;;;;;5054104;28;20061;-67